sensor_id;sensor_type;location;lat;lon;timestamp;temperature;humidity
212;DHT22;16228;48.800;9.002;2022-07-23T00:00:15;24.20;96.90
212;DHT22;16228;48.800;9.002;2022-07-23T00:02:43;24.20;96.10
212;DHT22;16228;48.800;9.002;2022-07-23T00:05:10;24.20;96.20
212;DHT22;16228;48.800;9.002;2022-07-23T00:07:37;24.20;96.00
212;DHT22;16228;48.800;9.002;2022-07-23T00:10:06;24.20;95.80
212;DHT22;16228;48.800;9.002;2022-07-23T00:12:34;24.20;96.90
212;DHT22;16228;48.800;9.002;2022-07-23T00:15:02;24.20;96.10
212;DHT22;16228;48.800;9.002;2022-07-23T00:17:29;24.20;96.80
212;DHT22;16228;48.800;9.002;2022-07-23T00:19:56;24.10;96.30
212;DHT22;16228;48.800;9.002;2022-07-23T00:22:23;24.10;95.80
212;DHT22;16228;48.800;9.002;2022-07-23T00:24:50;24.10;96.90
212;DHT22;16228;48.800;9.002;2022-07-23T00:27:19;24.10;96.90
212;DHT22;16228;48.800;9.002;2022-07-23T00:29:46;24.10;96.20
212;DHT22;16228;48.800;9.002;2022-07-23T00:32:12;24.10;96.90
212;DHT22;16228;48.800;9.002;2022-07-23T00:34:39;24.00;96.90
212;DHT22;16228;48.800;9.002;2022-07-23T00:37:06;24.00;96.70
212;DHT22;16228;48.800;9.002;2022-07-23T00:39:33;23.90;96.90
212;DHT22;16228;48.800;9.002;2022-07-23T00:42:00;23.90;96.90
212;DHT22;16228;48.800;9.002;2022-07-23T00:44:29;23.90;96.90
212;DHT22;16228;48.800;9.002;2022-07-23T00:46:57;23.90;96.70
212;DHT22;16228;48.800;9.002;2022-07-23T00:49:27;23.90;96.70
212;DHT22;16228;48.800;9.002;2022-07-23T00:51:54;23.90;96.90
212;DHT22;16228;48.800;9.002;2022-07-23T00:54:23;23.90;96.90
212;DHT22;16228;48.800;9.002;2022-07-23T00:56:50;23.80;96.90
212;DHT22;16228;48.800;9.002;2022-07-23T00:59:17;23.80;96.90
212;DHT22;16228;48.800;9.002;2022-07-23T01:01:45;23.80;96.90
212;DHT22;16228;48.800;9.002;2022-07-23T01:04:15;23.70;96.90
212;DHT22;16228;48.800;9.002;2022-07-23T01:06:43;23.70;96.90
212;DHT22;16228;48.800;9.002;2022-07-23T01:09:10;23.60;96.90
212;DHT22;16228;48.800;9.002;2022-07-23T01:11:38;23.60;96.90
212;DHT22;16228;48.800;9.002;2022-07-23T01:14:09;23.60;96.90
212;DHT22;16228;48.800;9.002;2022-07-23T01:16:36;23.50;96.90
212;DHT22;16228;48.800;9.002;2022-07-23T01:19:04;23.60;96.90
212;DHT22;16228;48.800;9.002;2022-07-23T01:21:35;23.60;96.90
212;DHT22;16228;48.800;9.002;2022-07-23T01:24:05;23.50;96.90
212;DHT22;16228;48.800;9.002;2022-07-23T01:26:32;23.40;96.90
212;DHT22;16228;48.800;9.002;2022-07-23T01:28:59;23.40;96.90
212;DHT22;16228;48.800;9.002;2022-07-23T01:31:26;23.30;96.90
212;DHT22;16228;48.800;9.002;2022-07-23T01:33:53;23.30;96.90
212;DHT22;16228;48.800;9.002;2022-07-23T01:36:20;23.20;96.90
212;DHT22;16228;48.800;9.002;2022-07-23T01:38:48;23.20;96.90
212;DHT22;16228;48.800;9.002;2022-07-23T01:41:16;23.20;96.90
212;DHT22;16228;48.800;9.002;2022-07-23T01:43:43;23.10;96.90
212;DHT22;16228;48.800;9.002;2022-07-23T01:46:10;23.10;96.90
212;DHT22;16228;48.800;9.002;2022-07-23T01:48:37;23.00;96.90
212;DHT22;16228;48.800;9.002;2022-07-23T01:51:05;23.00;96.90
212;DHT22;16228;48.800;9.002;2022-07-23T01:53:32;22.90;96.90
212;DHT22;16228;48.800;9.002;2022-07-23T01:55:59;22.80;96.90
212;DHT22;16228;48.800;9.002;2022-07-23T01:58:27;22.80;96.90
212;DHT22;16228;48.800;9.002;2022-07-23T02:00:54;22.70;96.90
212;DHT22;16228;48.800;9.002;2022-07-23T02:03:22;22.60;96.90
212;DHT22;16228;48.800;9.002;2022-07-23T02:05:49;22.50;96.90
212;DHT22;16228;48.800;9.002;2022-07-23T02:08:16;22.40;96.90
212;DHT22;16228;48.800;9.002;2022-07-23T02:10:43;22.30;96.90
212;DHT22;16228;48.800;9.002;2022-07-23T02:13:11;22.20;96.90
212;DHT22;16228;48.800;9.002;2022-07-23T02:15:39;22.20;96.90
212;DHT22;16228;48.800;9.002;2022-07-23T02:18:06;22.20;96.90
212;DHT22;16228;48.800;9.002;2022-07-23T02:20:33;22.10;96.90
212;DHT22;16228;48.800;9.002;2022-07-23T02:23:04;22.00;96.90
212;DHT22;16228;48.800;9.002;2022-07-23T02:25:32;22.00;96.90
212;DHT22;16228;48.800;9.002;2022-07-23T02:27:59;22.00;96.90
212;DHT22;16228;48.800;9.002;2022-07-23T02:30:26;21.90;96.90
212;DHT22;16228;48.800;9.002;2022-07-23T02:32:55;21.90;96.90
212;DHT22;16228;48.800;9.002;2022-07-23T02:35:22;21.90;96.90
212;DHT22;16228;48.800;9.002;2022-07-23T02:37:49;21.80;96.90
212;DHT22;16228;48.800;9.002;2022-07-23T02:40:16;21.80;96.90
212;DHT22;16228;48.800;9.002;2022-07-23T02:42:43;21.70;96.90
212;DHT22;16228;48.800;9.002;2022-07-23T02:45:11;21.70;96.90
212;DHT22;16228;48.800;9.002;2022-07-23T02:47:38;21.70;96.90
212;DHT22;16228;48.800;9.002;2022-07-23T02:50:07;21.70;96.90
212;DHT22;16228;48.800;9.002;2022-07-23T02:52:34;21.60;96.90
212;DHT22;16228;48.800;9.002;2022-07-23T02:55:02;21.60;96.90
212;DHT22;16228;48.800;9.002;2022-07-23T02:57:29;21.60;96.90
212;DHT22;16228;48.800;9.002;2022-07-23T02:59:56;21.60;96.90
212;DHT22;16228;48.800;9.002;2022-07-23T03:02:23;21.60;96.90
212;DHT22;16228;48.800;9.002;2022-07-23T03:04:50;21.60;96.90
212;DHT22;16228;48.800;9.002;2022-07-23T03:07:18;21.70;96.90
212;DHT22;16228;48.800;9.002;2022-07-23T03:09:45;21.80;96.90
212;DHT22;16228;48.800;9.002;2022-07-23T03:12:12;21.80;96.90
212;DHT22;16228;48.800;9.002;2022-07-23T03:14:40;21.80;96.90
212;DHT22;16228;48.800;9.002;2022-07-23T03:17:07;21.80;96.90
212;DHT22;16228;48.800;9.002;2022-07-23T03:19:34;21.80;96.90
212;DHT22;16228;48.800;9.002;2022-07-23T03:22:02;21.70;96.90
212;DHT22;16228;48.800;9.002;2022-07-23T03:24:31;21.70;96.90
212;DHT22;16228;48.800;9.002;2022-07-23T03:27:11;21.70;96.90
212;DHT22;16228;48.800;9.002;2022-07-23T03:29:39;21.60;96.90
212;DHT22;16228;48.800;9.002;2022-07-23T03:32:06;21.60;96.90
212;DHT22;16228;48.800;9.002;2022-07-23T03:34:33;21.50;96.90
212;DHT22;16228;48.800;9.002;2022-07-23T03:37:00;21.40;96.90
212;DHT22;16228;48.800;9.002;2022-07-23T03:39:27;21.40;96.90
212;DHT22;16228;48.800;9.002;2022-07-23T03:41:55;21.40;96.90
212;DHT22;16228;48.800;9.002;2022-07-23T03:44:22;21.40;96.90
212;DHT22;16228;48.800;9.002;2022-07-23T03:46:49;21.30;96.90
212;DHT22;16228;48.800;9.002;2022-07-23T03:49:16;21.30;96.90
212;DHT22;16228;48.800;9.002;2022-07-23T03:51:43;21.30;96.90
212;DHT22;16228;48.800;9.002;2022-07-23T03:54:10;21.30;96.90
212;DHT22;16228;48.800;9.002;2022-07-23T03:56:37;21.20;96.90
212;DHT22;16228;48.800;9.002;2022-07-23T03:59:06;21.30;96.90
212;DHT22;16228;48.800;9.002;2022-07-23T04:01:33;21.30;96.90
212;DHT22;16228;48.800;9.002;2022-07-23T04:04:00;21.30;96.90
212;DHT22;16228;48.800;9.002;2022-07-23T04:06:27;21.30;96.90
212;DHT22;16228;48.800;9.002;2022-07-23T04:08:54;21.40;96.90
212;DHT22;16228;48.800;9.002;2022-07-23T04:11:22;21.30;96.90
212;DHT22;16228;48.800;9.002;2022-07-23T04:13:49;21.30;96.90
212;DHT22;16228;48.800;9.002;2022-07-23T04:16:17;21.30;96.90
212;DHT22;16228;48.800;9.002;2022-07-23T04:18:44;21.40;96.90
212;DHT22;16228;48.800;9.002;2022-07-23T04:21:11;21.40;96.90
212;DHT22;16228;48.800;9.002;2022-07-23T04:23:38;21.40;96.90
212;DHT22;16228;48.800;9.002;2022-07-23T04:26:05;21.40;96.90
212;DHT22;16228;48.800;9.002;2022-07-23T04:28:32;21.50;96.90
212;DHT22;16228;48.800;9.002;2022-07-23T04:30:59;21.50;96.90
212;DHT22;16228;48.800;9.002;2022-07-23T04:33:27;21.50;96.90
212;DHT22;16228;48.800;9.002;2022-07-23T04:35:54;21.50;96.90
212;DHT22;16228;48.800;9.002;2022-07-23T04:38:21;21.60;96.90
212;DHT22;16228;48.800;9.002;2022-07-23T04:40:48;21.60;96.90
212;DHT22;16228;48.800;9.002;2022-07-23T04:43:15;21.60;96.90
212;DHT22;16228;48.800;9.002;2022-07-23T04:45:42;21.70;96.90
212;DHT22;16228;48.800;9.002;2022-07-23T04:48:09;21.70;96.90
212;DHT22;16228;48.800;9.002;2022-07-23T04:50:37;21.70;96.90
212;DHT22;16228;48.800;9.002;2022-07-23T04:53:05;21.80;96.90
212;DHT22;16228;48.800;9.002;2022-07-23T04:55:31;21.80;96.90
212;DHT22;16228;48.800;9.002;2022-07-23T04:57:58;21.90;96.90
212;DHT22;16228;48.800;9.002;2022-07-23T05:00:25;22.00;96.90
212;DHT22;16228;48.800;9.002;2022-07-23T05:02:52;22.10;96.90
212;DHT22;16228;48.800;9.002;2022-07-23T05:05:19;22.20;96.90
212;DHT22;16228;48.800;9.002;2022-07-23T05:07:48;22.20;96.90
212;DHT22;16228;48.800;9.002;2022-07-23T05:10:15;22.20;96.90
212;DHT22;16228;48.800;9.002;2022-07-23T05:12:42;22.30;96.90
212;DHT22;16228;48.800;9.002;2022-07-23T05:15:08;22.40;96.90
212;DHT22;16228;48.800;9.002;2022-07-23T05:17:35;22.40;96.90
212;DHT22;16228;48.800;9.002;2022-07-23T05:20:03;22.50;96.90
212;DHT22;16228;48.800;9.002;2022-07-23T05:22:30;22.50;96.90
212;DHT22;16228;48.800;9.002;2022-07-23T05:24:59;22.60;96.90
212;DHT22;16228;48.800;9.002;2022-07-23T05:27:26;22.70;96.90
212;DHT22;16228;48.800;9.002;2022-07-23T05:29:53;22.90;96.90
212;DHT22;16228;48.800;9.002;2022-07-23T05:32:19;23.10;96.90
212;DHT22;16228;48.800;9.002;2022-07-23T05:34:46;23.20;96.90
212;DHT22;16228;48.800;9.002;2022-07-23T05:37:13;23.30;96.90
212;DHT22;16228;48.800;9.002;2022-07-23T05:39:40;23.30;96.90
212;DHT22;16228;48.800;9.002;2022-07-23T05:42:09;23.40;96.90
212;DHT22;16228;48.800;9.002;2022-07-23T05:44:36;23.50;96.90
212;DHT22;16228;48.800;9.002;2022-07-23T05:47:03;23.50;96.90
212;DHT22;16228;48.800;9.002;2022-07-23T05:49:30;23.50;96.90
212;DHT22;16228;48.800;9.002;2022-07-23T05:51:57;23.50;96.90
212;DHT22;16228;48.800;9.002;2022-07-23T05:54:24;23.60;96.90
212;DHT22;16228;48.800;9.002;2022-07-23T05:56:51;23.60;96.90
212;DHT22;16228;48.800;9.002;2022-07-23T05:59:19;23.70;96.90
212;DHT22;16228;48.800;9.002;2022-07-23T06:01:46;23.60;96.90
212;DHT22;16228;48.800;9.002;2022-07-23T06:04:13;23.60;96.90
212;DHT22;16228;48.800;9.002;2022-07-23T06:06:40;23.50;96.90
212;DHT22;16228;48.800;9.002;2022-07-23T06:09:07;23.40;96.90
212;DHT22;16228;48.800;9.002;2022-07-23T06:11:36;23.20;96.90
212;DHT22;16228;48.800;9.002;2022-07-23T06:14:03;23.20;96.90
212;DHT22;16228;48.800;9.002;2022-07-23T06:16:31;23.10;96.90
212;DHT22;16228;48.800;9.002;2022-07-23T06:18:58;23.20;96.90
212;DHT22;16228;48.800;9.002;2022-07-23T06:21:25;23.50;96.90
212;DHT22;16228;48.800;9.002;2022-07-23T06:23:52;23.70;96.90
212;DHT22;16228;48.800;9.002;2022-07-23T06:26:19;24.00;96.90
212;DHT22;16228;48.800;9.002;2022-07-23T06:28:46;24.20;96.90
212;DHT22;16228;48.800;9.002;2022-07-23T06:31:13;24.50;96.90
212;DHT22;16228;48.800;9.002;2022-07-23T06:33:41;24.60;96.90
212;DHT22;16228;48.800;9.002;2022-07-23T06:36:08;24.80;96.90
212;DHT22;16228;48.800;9.002;2022-07-23T06:38:35;25.20;96.90
212;DHT22;16228;48.800;9.002;2022-07-23T06:41:02;25.60;96.90
212;DHT22;16228;48.800;9.002;2022-07-23T06:43:30;25.90;96.90
212;DHT22;16228;48.800;9.002;2022-07-23T06:45:57;26.00;96.30
212;DHT22;16228;48.800;9.002;2022-07-23T06:48:24;25.80;95.50
212;DHT22;16228;48.800;9.002;2022-07-23T06:50:52;25.50;96.90
212;DHT22;16228;48.800;9.002;2022-07-23T06:53:20;25.20;96.90
212;DHT22;16228;48.800;9.002;2022-07-23T06:55:47;24.80;96.90
212;DHT22;16228;48.800;9.002;2022-07-23T06:58:14;24.50;96.90
212;DHT22;16228;48.800;9.002;2022-07-23T07:00:41;24.20;96.90
212;DHT22;16228;48.800;9.002;2022-07-23T07:03:08;23.90;96.90
212;DHT22;16228;48.800;9.002;2022-07-23T07:05:35;23.80;96.90
212;DHT22;16228;48.800;9.002;2022-07-23T07:08:04;23.70;96.90
212;DHT22;16228;48.800;9.002;2022-07-23T07:10:31;23.70;96.90
212;DHT22;16228;48.800;9.002;2022-07-23T07:12:58;23.60;96.90
212;DHT22;16228;48.800;9.002;2022-07-23T07:15:25;23.50;96.90
212;DHT22;16228;48.800;9.002;2022-07-23T07:17:52;23.40;96.90
212;DHT22;16228;48.800;9.002;2022-07-23T07:20:19;23.30;96.90
212;DHT22;16228;48.800;9.002;2022-07-23T07:22:46;23.10;96.90
212;DHT22;16228;48.800;9.002;2022-07-23T07:25:14;23.00;96.90
212;DHT22;16228;48.800;9.002;2022-07-23T07:27:41;22.90;96.90
212;DHT22;16228;48.800;9.002;2022-07-23T07:30:10;22.90;96.90
212;DHT22;16228;48.800;9.002;2022-07-23T07:32:38;23.00;96.90
212;DHT22;16228;48.800;9.002;2022-07-23T07:35:05;23.30;96.90
212;DHT22;16228;48.800;9.002;2022-07-23T07:37:33;24.00;96.90
212;DHT22;16228;48.800;9.002;2022-07-23T07:40:00;24.60;96.90
212;DHT22;16228;48.800;9.002;2022-07-23T07:42:28;25.00;96.90
212;DHT22;16228;48.800;9.002;2022-07-23T07:44:55;25.00;96.90
212;DHT22;16228;48.800;9.002;2022-07-23T07:47:22;25.00;96.90
212;DHT22;16228;48.800;9.002;2022-07-23T07:49:49;24.70;96.90
212;DHT22;16228;48.800;9.002;2022-07-23T07:52:16;24.50;96.90
212;DHT22;16228;48.800;9.002;2022-07-23T07:54:43;24.30;96.90
212;DHT22;16228;48.800;9.002;2022-07-23T07:57:10;24.20;96.90
212;DHT22;16228;48.800;9.002;2022-07-23T07:59:38;24.70;96.90
212;DHT22;16228;48.800;9.002;2022-07-23T08:02:05;25.40;96.90
212;DHT22;16228;48.800;9.002;2022-07-23T08:04:32;25.60;96.90
212;DHT22;16228;48.800;9.002;2022-07-23T08:06:59;25.60;96.90
212;DHT22;16228;48.800;9.002;2022-07-23T08:09:26;25.40;96.90
212;DHT22;16228;48.800;9.002;2022-07-23T08:11:53;25.10;96.90
212;DHT22;16228;48.800;9.002;2022-07-23T08:14:20;24.90;96.90
212;DHT22;16228;48.800;9.002;2022-07-23T08:16:48;25.60;96.90
212;DHT22;16228;48.800;9.002;2022-07-23T08:19:15;27.10;96.90
212;DHT22;16228;48.800;9.002;2022-07-23T08:21:42;27.70;95.60
212;DHT22;16228;48.800;9.002;2022-07-23T08:24:09;28.00;93.70
212;DHT22;16228;48.800;9.002;2022-07-23T08:26:36;28.50;95.50
212;DHT22;16228;48.800;9.002;2022-07-23T08:29:03;29.60;91.40
212;DHT22;16228;48.800;9.002;2022-07-23T08:31:31;30.80;91.10
212;DHT22;16228;48.800;9.002;2022-07-23T08:34:00;32.00;83.70
212;DHT22;16228;48.800;9.002;2022-07-23T08:36:28;32.20;82.10
212;DHT22;16228;48.800;9.002;2022-07-23T08:38:57;32.10;87.90
212;DHT22;16228;48.800;9.002;2022-07-23T08:41:24;31.50;81.40
212;DHT22;16228;48.800;9.002;2022-07-23T08:43:51;31.60;87.00
212;DHT22;16228;48.800;9.002;2022-07-23T08:46:19;32.30;81.80
212;DHT22;16228;48.800;9.002;2022-07-23T08:48:48;33.30;81.30
212;DHT22;16228;48.800;9.002;2022-07-23T08:51:17;34.20;79.80
212;DHT22;16228;48.800;9.002;2022-07-23T08:53:45;34.90;74.60
212;DHT22;16228;48.800;9.002;2022-07-23T08:56:13;35.30;77.40
212;DHT22;16228;48.800;9.002;2022-07-23T08:58:40;35.70;75.50
212;DHT22;16228;48.800;9.002;2022-07-23T09:01:07;35.40;75.90
212;DHT22;16228;48.800;9.002;2022-07-23T09:03:35;34.70;77.40
212;DHT22;16228;48.800;9.002;2022-07-23T09:06:04;34.10;76.90
212;DHT22;16228;48.800;9.002;2022-07-23T09:08:36;33.80;78.00
212;DHT22;16228;48.800;9.002;2022-07-23T09:11:05;33.70;79.90
212;DHT22;16228;48.800;9.002;2022-07-23T09:13:36;32.90;79.30
212;DHT22;16228;48.800;9.002;2022-07-23T09:16:06;32.10;83.10
212;DHT22;16228;48.800;9.002;2022-07-23T09:18:40;31.40;82.30
212;DHT22;16228;48.800;9.002;2022-07-23T09:21:11;30.70;84.70
212;DHT22;16228;48.800;9.002;2022-07-23T09:23:42;30.60;83.90
212;DHT22;16228;48.800;9.002;2022-07-23T09:26:27;30.50;84.00
212;DHT22;16228;48.800;9.002;2022-07-23T09:28:59;30.50;84.70
212;DHT22;16228;48.800;9.002;2022-07-23T09:31:31;30.10;87.30
212;DHT22;16228;48.800;9.002;2022-07-23T09:34:10;29.50;88.60
212;DHT22;16228;48.800;9.002;2022-07-23T09:36:38;29.30;87.70
212;DHT22;16228;48.800;9.002;2022-07-23T09:39:08;30.10;88.70
212;DHT22;16228;48.800;9.002;2022-07-23T09:41:40;31.80;85.60
212;DHT22;16228;48.800;9.002;2022-07-23T09:44:13;33.20;81.80
212;DHT22;16228;48.800;9.002;2022-07-23T09:46:42;34.70;79.80
212;DHT22;16228;48.800;9.002;2022-07-23T09:49:15;35.60;73.10
212;DHT22;16228;48.800;9.002;2022-07-23T09:51:53;36.60;71.30
212;DHT22;16228;48.800;9.002;2022-07-23T09:54:25;37.50;73.70
212;DHT22;16228;48.800;9.002;2022-07-23T09:56:54;38.40;65.50
212;DHT22;16228;48.800;9.002;2022-07-23T09:59:24;38.80;65.90
212;DHT22;16228;48.800;9.002;2022-07-23T10:01:53;38.90;66.20
212;DHT22;16228;48.800;9.002;2022-07-23T10:04:21;39.10;63.60
212;DHT22;16228;48.800;9.002;2022-07-23T10:06:52;39.50;65.40
212;DHT22;16228;48.800;9.002;2022-07-23T10:09:24;39.80;65.10
212;DHT22;16228;48.800;9.002;2022-07-23T10:11:54;39.80;66.60
212;DHT22;16228;48.800;9.002;2022-07-23T10:14:25;39.90;66.00
212;DHT22;16228;48.800;9.002;2022-07-23T10:17:11;40.00;63.20
212;DHT22;16228;48.800;9.002;2022-07-23T10:19:39;39.90;63.00
212;DHT22;16228;48.800;9.002;2022-07-23T10:22:09;39.40;65.00
212;DHT22;16228;48.800;9.002;2022-07-23T10:24:49;39.00;62.30
212;DHT22;16228;48.800;9.002;2022-07-23T10:27:31;38.00;66.10
212;DHT22;16228;48.800;9.002;2022-07-23T10:30:03;37.60;68.60
212;DHT22;16228;48.800;9.002;2022-07-23T10:32:40;37.70;65.10
212;DHT22;16228;48.800;9.002;2022-07-23T10:35:16;38.20;65.30
212;DHT22;16228;48.800;9.002;2022-07-23T10:37:49;38.40;64.70
212;DHT22;16228;48.800;9.002;2022-07-23T10:40:19;38.30;66.30
212;DHT22;16228;48.800;9.002;2022-07-23T10:42:49;38.50;65.40
212;DHT22;16228;48.800;9.002;2022-07-23T10:45:25;38.50;64.30
212;DHT22;16228;48.800;9.002;2022-07-23T10:47:53;38.70;65.00
212;DHT22;16228;48.800;9.002;2022-07-23T10:50:21;39.20;63.90
212;DHT22;16228;48.800;9.002;2022-07-23T10:53:08;39.30;61.40
212;DHT22;16228;48.800;9.002;2022-07-23T10:55:43;39.50;62.20
212;DHT22;16228;48.800;9.002;2022-07-23T10:58:11;39.40;59.70
212;DHT22;16228;48.800;9.002;2022-07-23T11:00:43;39.80;61.90
212;DHT22;16228;48.800;9.002;2022-07-23T11:03:35;40.30;61.70
212;DHT22;16228;48.800;9.002;2022-07-23T11:06:05;40.30;58.90
212;DHT22;16228;48.800;9.002;2022-07-23T11:08:32;40.00;60.20
212;DHT22;16228;48.800;9.002;2022-07-23T11:11:11;39.90;63.10
212;DHT22;16228;48.800;9.002;2022-07-23T11:13:46;40.10;59.60
212;DHT22;16228;48.800;9.002;2022-07-23T11:16:16;40.20;58.40
212;DHT22;16228;48.800;9.002;2022-07-23T11:19:03;40.40;60.90
212;DHT22;16228;48.800;9.002;2022-07-23T11:21:51;40.50;58.00
212;DHT22;16228;48.800;9.002;2022-07-23T11:24:23;40.00;58.60
212;DHT22;16228;48.800;9.002;2022-07-23T11:27:00;39.90;61.00
212;DHT22;16228;48.800;9.002;2022-07-23T11:29:47;39.80;62.60
212;DHT22;16228;48.800;9.002;2022-07-23T11:32:24;39.60;63.70
212;DHT22;16228;48.800;9.002;2022-07-23T11:34:52;39.40;60.20
212;DHT22;16228;48.800;9.002;2022-07-23T11:37:37;39.50;61.90
212;DHT22;16228;48.800;9.002;2022-07-23T11:40:08;39.20;63.70
212;DHT22;16228;48.800;9.002;2022-07-23T11:42:55;39.30;59.40
212;DHT22;16228;48.800;9.002;2022-07-23T11:45:23;39.40;63.20
212;DHT22;16228;48.800;9.002;2022-07-23T11:47:50;39.60;61.30
212;DHT22;16228;48.800;9.002;2022-07-23T11:50:17;40.00;61.50
212;DHT22;16228;48.800;9.002;2022-07-23T11:52:44;40.30;64.50
212;DHT22;16228;48.800;9.002;2022-07-23T11:55:11;40.20;59.40
212;DHT22;16228;48.800;9.002;2022-07-23T11:57:42;39.80;58.10
212;DHT22;16228;48.800;9.002;2022-07-23T12:00:13;39.60;59.30
212;DHT22;16228;48.800;9.002;2022-07-23T12:02:43;39.60;61.90
212;DHT22;16228;48.800;9.002;2022-07-23T12:05:12;39.50;63.00
212;DHT22;16228;48.800;9.002;2022-07-23T12:07:40;39.50;61.20
212;DHT22;16228;48.800;9.002;2022-07-23T12:10:11;39.60;60.90
212;DHT22;16228;48.800;9.002;2022-07-23T12:12:41;39.70;62.40
212;DHT22;16228;48.800;9.002;2022-07-23T12:15:10;39.60;61.40
212;DHT22;16228;48.800;9.002;2022-07-23T12:17:39;40.00;63.70
212;DHT22;16228;48.800;9.002;2022-07-23T12:20:09;40.00;60.30
212;DHT22;16228;48.800;9.002;2022-07-23T12:22:39;39.80;62.40
212;DHT22;16228;48.800;9.002;2022-07-23T12:25:09;39.60;61.50
212;DHT22;16228;48.800;9.002;2022-07-23T12:27:36;39.60;61.60
212;DHT22;16228;48.800;9.002;2022-07-23T12:30:18;39.60;62.00
212;DHT22;16228;48.800;9.002;2022-07-23T12:32:48;39.40;60.50
212;DHT22;16228;48.800;9.002;2022-07-23T12:35:15;39.10;63.50
212;DHT22;16228;48.800;9.002;2022-07-23T12:37:45;38.90;62.80
212;DHT22;16228;48.800;9.002;2022-07-23T12:40:20;38.90;61.70
212;DHT22;16228;48.800;9.002;2022-07-23T12:42:48;38.50;64.30
212;DHT22;16228;48.800;9.002;2022-07-23T12:45:16;37.60;61.60
212;DHT22;16228;48.800;9.002;2022-07-23T12:48:02;36.40;62.50
212;DHT22;16228;48.800;9.002;2022-07-23T12:50:53;35.50;64.80
212;DHT22;16228;48.800;9.002;2022-07-23T12:53:22;34.80;68.40
212;DHT22;16228;48.800;9.002;2022-07-23T12:55:50;34.30;67.60
212;DHT22;16228;48.800;9.002;2022-07-23T12:58:19;34.10;67.90
212;DHT22;16228;48.800;9.002;2022-07-23T13:03:38;33.60;69.20
212;DHT22;16228;48.800;9.002;2022-07-23T13:06:08;33.10;75.50
212;DHT22;16228;48.800;9.002;2022-07-23T13:08:38;32.70;73.60
212;DHT22;16228;48.800;9.002;2022-07-23T13:11:06;32.70;75.50
212;DHT22;16228;48.800;9.002;2022-07-23T13:13:34;32.70;74.80
212;DHT22;16228;48.800;9.002;2022-07-23T13:16:03;32.80;72.60
212;DHT22;16228;48.800;9.002;2022-07-23T13:18:30;33.10;77.40
212;DHT22;16228;48.800;9.002;2022-07-23T13:20:58;33.40;72.80
212;DHT22;16228;48.800;9.002;2022-07-23T13:23:25;33.60;74.60
212;DHT22;16228;48.800;9.002;2022-07-23T13:25:53;34.00;72.50
212;DHT22;16228;48.800;9.002;2022-07-23T13:28:21;34.70;69.00
212;DHT22;16228;48.800;9.002;2022-07-23T13:30:49;35.40;69.30
212;DHT22;16228;48.800;9.002;2022-07-23T13:33:18;35.60;66.40
212;DHT22;16228;48.800;9.002;2022-07-23T13:35:46;35.50;66.30
212;DHT22;16228;48.800;9.002;2022-07-23T13:38:14;34.90;68.10
212;DHT22;16228;48.800;9.002;2022-07-23T13:40:43;34.30;68.50
212;DHT22;16228;48.800;9.002;2022-07-23T13:43:12;33.60;70.40
212;DHT22;16228;48.800;9.002;2022-07-23T13:45:40;33.10;70.80
212;DHT22;16228;48.800;9.002;2022-07-23T13:48:09;32.70;71.70
212;DHT22;16228;48.800;9.002;2022-07-23T13:50:38;32.40;75.10
212;DHT22;16228;48.800;9.002;2022-07-23T13:53:07;32.20;73.20
212;DHT22;16228;48.800;9.002;2022-07-23T13:55:35;31.90;72.00
212;DHT22;16228;48.800;9.002;2022-07-23T13:58:03;31.90;74.20
212;DHT22;16228;48.800;9.002;2022-07-23T14:00:32;31.70;74.70
212;DHT22;16228;48.800;9.002;2022-07-23T14:03:00;31.60;74.30
212;DHT22;16228;48.800;9.002;2022-07-23T14:05:27;31.40;74.30
212;DHT22;16228;48.800;9.002;2022-07-23T14:07:56;31.30;74.10
212;DHT22;16228;48.800;9.002;2022-07-23T14:10:23;31.00;74.00
212;DHT22;16228;48.800;9.002;2022-07-23T14:12:51;30.90;73.70
212;DHT22;16228;48.800;9.002;2022-07-23T14:15:22;30.90;76.30
212;DHT22;16228;48.800;9.002;2022-07-23T14:17:49;30.90;76.30
212;DHT22;16228;48.800;9.002;2022-07-23T14:20:16;30.80;74.20
212;DHT22;16228;48.800;9.002;2022-07-23T14:22:43;30.70;73.60
212;DHT22;16228;48.800;9.002;2022-07-23T14:25:12;30.60;75.20
212;DHT22;16228;48.800;9.002;2022-07-23T14:27:39;30.50;73.90
212;DHT22;16228;48.800;9.002;2022-07-23T14:30:08;30.50;75.30
212;DHT22;16228;48.800;9.002;2022-07-23T14:32:36;30.50;75.10
212;DHT22;16228;48.800;9.002;2022-07-23T14:35:04;30.40;73.50
212;DHT22;16228;48.800;9.002;2022-07-23T14:37:32;30.40;75.20
212;DHT22;16228;48.800;9.002;2022-07-23T14:39:59;30.40;74.90
212;DHT22;16228;48.800;9.002;2022-07-23T14:42:27;30.40;74.70
212;DHT22;16228;48.800;9.002;2022-07-23T14:44:54;30.30;75.40
212;DHT22;16228;48.800;9.002;2022-07-23T14:47:21;30.30;76.70
212;DHT22;16228;48.800;9.002;2022-07-23T14:49:48;30.20;74.60
212;DHT22;16228;48.800;9.002;2022-07-23T14:52:16;30.20;77.30
212;DHT22;16228;48.800;9.002;2022-07-23T14:54:43;30.10;75.60
212;DHT22;16228;48.800;9.002;2022-07-23T14:57:10;29.90;75.30
212;DHT22;16228;48.800;9.002;2022-07-23T14:59:38;30.00;78.00
212;DHT22;16228;48.800;9.002;2022-07-23T15:02:07;30.00;76.70
212;DHT22;16228;48.800;9.002;2022-07-23T15:04:34;30.10;77.30
212;DHT22;16228;48.800;9.002;2022-07-23T15:07:02;30.20;78.90
212;DHT22;16228;48.800;9.002;2022-07-23T15:09:29;30.20;77.00
212;DHT22;16228;48.800;9.002;2022-07-23T15:11:56;30.40;77.20
212;DHT22;16228;48.800;9.002;2022-07-23T15:14:23;30.50;78.00
212;DHT22;16228;48.800;9.002;2022-07-23T15:16:51;30.50;75.30
212;DHT22;16228;48.800;9.002;2022-07-23T15:19:18;30.40;75.30
212;DHT22;16228;48.800;9.002;2022-07-23T15:21:45;30.20;76.10
212;DHT22;16228;48.800;9.002;2022-07-23T15:24:12;30.10;76.10
212;DHT22;16228;48.800;9.002;2022-07-23T15:26:39;29.80;74.90
212;DHT22;16228;48.800;9.002;2022-07-23T15:29:06;29.60;76.00
212;DHT22;16228;48.800;9.002;2022-07-23T15:31:33;29.50;76.20
212;DHT22;16228;48.800;9.002;2022-07-23T15:34:02;29.50;78.00
212;DHT22;16228;48.800;9.002;2022-07-23T15:36:29;29.30;77.50
212;DHT22;16228;48.800;9.002;2022-07-23T15:38:56;29.30;78.50
212;DHT22;16228;48.800;9.002;2022-07-23T15:41:23;29.30;77.10
212;DHT22;16228;48.800;9.002;2022-07-23T15:43:50;29.40;77.70
212;DHT22;16228;48.800;9.002;2022-07-23T15:46:17;29.50;77.70
212;DHT22;16228;48.800;9.002;2022-07-23T15:48:45;29.40;77.80
212;DHT22;16228;48.800;9.002;2022-07-23T15:51:13;29.40;77.20
212;DHT22;16228;48.800;9.002;2022-07-23T15:53:41;29.30;76.70
212;DHT22;16228;48.800;9.002;2022-07-23T15:56:09;29.30;77.20
212;DHT22;16228;48.800;9.002;2022-07-23T15:58:36;29.20;77.30
212;DHT22;16228;48.800;9.002;2022-07-23T16:01:04;29.20;76.60
212;DHT22;16228;48.800;9.002;2022-07-23T16:03:32;29.20;78.20
212;DHT22;16228;48.800;9.002;2022-07-23T16:05:59;29.10;79.30
212;DHT22;16228;48.800;9.002;2022-07-23T16:08:27;28.90;77.70
212;DHT22;16228;48.800;9.002;2022-07-23T16:10:55;28.90;78.00
212;DHT22;16228;48.800;9.002;2022-07-23T16:13:24;28.90;79.50